Time;durP1;ratioP1;P1;durP2;ratioP2;P2;SDS_P1;SDS_P2;PMS_P1;PMS_P2;Temp;Humidity;BMP_temperature;BMP_pressure;BME280_temperature;BME280_humidity;BME280_pressure;Samples;Min_cycle;Max_cycle;Signal;HPM_P1;HPM_P2
2022/06/21 00:00:14;;;;;;;19.57;6.47;;;;;;;;;;5078220;28;20023;-66
2022/06/21 00:02:39;;;;;;;13.87;6.43;;;;;;;;;;5079448;28;20379;-66
2022/06/21 00:05:06;;;;;;;16.90;6.93;;;;;;;;;;5084686;28;20023;-66
2022/06/21 00:07:31;;;;;;;19.33;7.17;;;;;;;;;;5088020;28;20035;-66
2022/06/21 00:09:57;;;;;;;14.10;6.90;;;;;;;;;;5084737;28;20024;-66
2022/06/21 00:12:22;;;;;;;23.83;7.00;;;;;;;;;;5087457;28;20357;-66
2022/06/21 00:14:47;;;;;;;16.17;6.20;;;;;;;;;;5085942;28;20078;-66
2022/06/21 00:17:14;;;;;;;15.13;7.13;;;;;;;;;;5086317;28;20056;-66
2022/06/21 00:19:41;;;;;;;16.00;6.70;;;;;;;;;;5083563;28;20011;-66
2022/06/21 00:22:10;;;;;;;14.17;7.10;;;;;;;;;;5088198;28;20016;-66
2022/06/21 00:24:35;;;;;;;18.23;7.70;;;;;;;;;;5087426;28;20025;-66
2022/06/21 00:27:02;;;;;;;21.57;7.03;;;;;;;;;;5085073;28;20363;-66
2022/06/21 00:29:27;;;;;;;21.77;8.20;;;;;;;;;;5083181;28;20533;-67
2022/06/21 00:31:53;;;;;;;19.67;7.97;;;;;;;;;;5084707;28;20091;-66
2022/06/21 00:34:20;;;;;;;21.20;7.60;;;;;;;;;;5080631;28;20361;-66
2022/06/21 00:36:46;;;;;;;28.93;9.50;;;;;;;;;;5091299;28;20077;-66
2022/06/21 00:39:12;;;;;;;21.20;8.67;;;;;;;;;;5088031;28;20020;-66
2022/06/21 00:41:40;;;;;;;22.27;8.97;;;;;;;;;;5087591;28;20055;-66
2022/06/21 00:44:07;;;;;;;22.33;8.77;;;;;;;;;;5081317;28;20473;-67
2022/06/21 00:46:41;;;;;;;23.10;9.40;;;;;;;;;;5080976;28;20082;-66
2022/06/21 00:49:11;;;;;;;26.60;9.00;;;;;;;;;;5089322;28;20032;-66
2022/06/21 00:51:40;;;;;;;21.23;8.07;;;;;;;;;;5090201;28;20443;-66
2022/06/21 00:54:14;;;;;;;17.50;7.33;;;;;;;;;;5084705;28;20085;-67
2022/06/21 00:56:43;;;;;;;17.57;7.00;;;;;;;;;;5085654;28;20028;-66
2022/06/21 00:59:18;;;;;;;17.83;7.80;;;;;;;;;;5085894;28;20103;-66
2022/06/21 01:01:43;;;;;;;24.10;8.90;;;;;;;;;;5084201;28;20024;-65
2022/06/21 01:04:14;;;;;;;23.33;9.47;;;;;;;;;;5082174;28;20093;-66
2022/06/21 01:06:42;;;;;;;22.97;9.67;;;;;;;;;;5088329;28;20464;-66
2022/06/21 01:09:20;;;;;;;20.63;8.87;;;;;;;;;;5081307;28;20032;-65
2022/06/21 01:11:51;;;;;;;30.20;11.40;;;;;;;;;;5083539;28;20036;-66
2022/06/21 01:14:17;;;;;;;24.37;10.80;;;;;;;;;;5087456;28;20047;-65
2022/06/21 01:16:43;;;;;;;19.77;10.93;;;;;;;;;;5085592;28;20509;-66
2022/06/21 01:19:14;;;;;;;32.03;11.87;;;;;;;;;;5089233;28;20016;-66
2022/06/21 01:21:40;;;;;;;26.97;11.90;;;;;;;;;;5089284;28;20100;-66
2022/06/21 01:24:11;;;;;;;30.10;12.87;;;;;;;;;;5085725;28;20353;-66
2022/06/21 01:26:43;;;;;;;27.52;12.15;;;;;;;;;;5083309;28;20036;-66
2022/06/21 01:29:11;;;;;;;31.77;13.70;;;;;;;;;;5082670;28;20033;-66
2022/06/21 01:31:37;;;;;;;30.33;13.80;;;;;;;;;;5079984;28;20035;-65
2022/06/21 01:34:02;;;;;;;24.60;12.83;;;;;;;;;;5082945;28;20020;-66
2022/06/21 01:36:31;;;;;;;32.20;13.73;;;;;;;;;;5085035;28;20020;-66
2022/06/21 01:39:03;;;;;;;33.17;15.77;;;;;;;;;;5083649;28;20031;-65
2022/06/21 01:41:28;;;;;;;;;;;;;;;;;;5085880;28;20063;-65
2022/06/21 01:43:56;;;;;;;32.30;14.73;;;;;;;;;;5091088;28;19951;-66
2022/06/21 01:46:25;;;;;;;33.70;15.77;;;;;;;;;;5077205;28;20511;-65
2022/06/21 01:48:53;;;;;;;37.60;16.93;;;;;;;;;;5085332;28;20020;-65
2022/06/21 01:51:40;;;;;;;30.90;16.63;;;;;;;;;;5085414;28;20501;-65
2022/06/21 01:54:07;;;;;;;35.30;16.83;;;;;;;;;;5080563;28;20024;-66
2022/06/21 01:56:36;;;;;;;34.77;17.77;;;;;;;;;;5085596;28;20038;-66
2022/06/21 01:59:06;;;;;;;28.47;16.90;;;;;;;;;;5085779;28;20027;-65
2022/06/21 02:01:52;;;;;;;23.90;11.47;;;;;;;;;;5088217;28;20026;-66
2022/06/21 02:04:20;;;;;;;24.77;10.73;;;;;;;;;;5086229;28;20032;-66
2022/06/21 02:06:46;;;;;;;22.00;11.30;;;;;;;;;;5081160;28;20051;-65
2022/06/21 02:09:23;;;;;;;26.07;12.40;;;;;;;;;;5085116;28;20039;-66
2022/06/21 02:12:08;;;;;;;24.77;12.93;;;;;;;;;;5083070;28;20023;-65
2022/06/21 02:14:37;;;;;;;26.87;13.47;;;;;;;;;;5088145;28;20036;-66
2022/06/21 02:17:04;;;;;;;29.60;15.70;;;;;;;;;;5080840;28;20044;-66
2022/06/21 02:19:36;;;;;;;37.53;16.77;;;;;;;;;;5080450;28;20460;-66
2022/06/21 02:22:01;;;;;;;32.23;16.83;;;;;;;;;;5087156;28;20107;-66
2022/06/21 02:24:29;;;;;;;28.63;15.03;;;;;;;;;;5086269;28;20115;-66
2022/06/21 02:26:55;;;;;;;29.43;14.23;;;;;;;;;;5082682;28;20022;-66
2022/06/21 02:29:20;;;;;;;27.23;14.47;;;;;;;;;;5075343;28;20039;-66
2022/06/21 02:31:46;;;;;;;33.73;14.83;;;;;;;;;;5083569;28;20055;-66
2022/06/21 02:34:16;;;;;;;30.90;14.97;;;;;;;;;;5082991;28;20016;-67
2022/06/21 02:36:47;;;;;;;20.83;9.83;;;;;;;;;;5086775;28;20024;-66
2022/06/21 02:39:14;;;;;;;17.57;10.70;;;;;;;;;;5087529;28;20069;-66
2022/06/21 02:41:41;;;;;;;30.77;15.03;;;;;;;;;;5081606;28;20024;-67
2022/06/21 02:44:15;;;;;;;31.63;16.10;;;;;;;;;;5083528;28;20092;-66
2022/06/21 02:46:43;;;;;;;34.17;16.83;;;;;;;;;;5080787;28;20093;-66
2022/06/21 02:49:14;;;;;;;40.33;18.47;;;;;;;;;;5081968;28;20471;-66
2022/06/21 02:51:51;;;;;;;43.07;18.40;;;;;;;;;;5082459;28;20503;-66
2022/06/21 02:54:19;;;;;;;38.00;19.17;;;;;;;;;;5086709;28;20035;-66
2022/06/21 02:56:47;;;;;;;33.83;16.80;;;;;;;;;;5073955;28;20499;-66
2022/06/21 02:59:13;;;;;;;29.47;15.93;;;;;;;;;;5085947;28;20070;-66
2022/06/21 03:01:43;;;;;;;33.33;16.33;;;;;;;;;;5081974;28;20361;-66
2022/06/21 03:04:14;;;;;;;20.83;12.57;;;;;;;;;;5081736;28;20735;-66
2022/06/21 03:06:39;;;;;;;30.42;15.55;;;;;;;;;;5083254;28;20034;-66
2022/06/21 03:09:06;;;;;;;33.37;16.20;;;;;;;;;;5083317;28;20054;-66
2022/06/21 03:11:34;;;;;;;39.47;17.60;;;;;;;;;;5079833;28;20479;-66
2022/06/21 03:14:06;;;;;;;37.73;17.67;;;;;;;;;;5085780;28;20060;-66
2022/06/21 03:16:31;;;;;;;30.98;17.48;;;;;;;;;;5076229;28;20035;-65
2022/06/21 03:19:00;;;;;;;37.83;18.10;;;;;;;;;;5088974;28;20028;-66
2022/06/21 03:21:27;;;;;;;35.63;18.57;;;;;;;;;;5081502;28;20028;-66
2022/06/21 03:23:53;;;;;;;41.53;20.27;;;;;;;;;;5090103;28;20357;-66
2022/06/21 03:26:19;;;;;;;37.53;20.20;;;;;;;;;;5079985;28;20054;-66
2022/06/21 03:28:47;;;;;;;42.60;20.73;;;;;;;;;;5087867;28;20032;-67
2022/06/21 03:31:16;;;;;;;37.03;21.13;;;;;;;;;;5076469;28;20024;-67
2022/06/21 03:33:43;;;;;;;44.73;21.27;;;;;;;;;;5085844;28;20371;-66
2022/06/21 03:36:10;;;;;;;44.60;20.97;;;;;;;;;;5085845;28;20513;-66
2022/06/21 03:38:36;;;;;;;41.97;20.77;;;;;;;;;;5084294;28;20077;-66
2022/06/21 03:43:47;;;;;;;40.93;20.20;;;;;;;;;;5084382;28;20092;-66
2022/06/21 03:46:26;;;;;;;36.03;19.43;;;;;;;;;;5085254;28;20024;-66
2022/06/21 03:48:51;;;;;;;42.13;19.53;;;;;;;;;;5085409;28;20030;-66
2022/06/21 03:51:19;;;;;;;42.63;18.63;;;;;;;;;;5080528;28;20624;-66
2022/06/21 03:53:46;;;;;;;30.73;16.43;;;;;;;;;;5089665;28;20119;-66
2022/06/21 03:56:32;;;;;;;30.13;14.97;;;;;;;;;;5083661;28;20093;-67
2022/06/21 03:59:29;;;;;;;25.50;14.63;;;;;;;;;;5088383;28;20097;-66
2022/06/21 04:02:02;;;;;;;32.00;15.20;;;;;;;;;;5069845;28;20549;-66
2022/06/21 04:04:29;;;;;;;24.93;12.93;;;;;;;;;;5082040;28;20028;-66
2022/06/21 04:07:06;;;;;;;20.00;11.90;;;;;;;;;;5086616;28;20484;-66
2022/06/21 04:09:46;;;;;;;19.47;9.20;;;;;;;;;;5086153;28;20546;-66
2022/06/21 04:12:20;;;;;;;12.50;6.73;;;;;;;;;;5082099;28;20483;-66
2022/06/21 04:14:45;;;;;;;17.90;5.90;;;;;;;;;;5090426;28;20024;-66
2022/06/21 04:17:11;;;;;;;14.10;5.73;;;;;;;;;;5085773;28;20035;-67
2022/06/21 04:19:40;;;;;;;14.27;5.33;;;;;;;;;;5084303;28;20031;-68
2022/06/21 04:22:26;;;;;;;11.30;4.87;;;;;;;;;;5089957;28;20024;-68
2022/06/21 04:24:51;;;;;;;14.27;5.07;;;;;;;;;;5086223;28;20423;-68
2022/06/21 04:27:16;;;;;;;15.77;5.00;;;;;;;;;;5078987;28;20020;-68
2022/06/21 04:29:42;;;;;;;13.90;4.43;;;;;;;;;;5089388;28;20472;-68
2022/06/21 04:32:36;;;;;;;18.50;5.23;;;;;;;;;;5083088;28;20028;-68
2022/06/21 04:35:09;;;;;;;11.37;4.40;;;;;;;;;;5077193;28;20102;-67
2022/06/21 04:37:39;;;;;;;14.80;5.17;;;;;;;;;;5084398;28;20020;-68
2022/06/21 04:40:09;;;;;;;13.07;4.80;;;;;;;;;;5087819;28;20024;-68
2022/06/21 04:42:38;;;;;;;10.03;4.37;;;;;;;;;;5083639;28;20027;-67
2022/06/21 04:45:06;;;;;;;14.10;4.60;;;;;;;;;;5089492;28;20047;-67
2022/06/21 04:47:44;;;;;;;10.30;4.77;;;;;;;;;;5083601;28;20056;-67
2022/06/21 04:50:16;;;;;;;12.63;4.77;;;;;;;;;;5089857;28;20036;-67
2022/06/21 04:52:47;;;;;;;15.07;4.78;;;;;;;;;;5085945;28;20381;-67
2022/06/21 04:55:14;;;;;;;17.20;4.78;;;;;;;;;;5090706;28;20032;-67
2022/06/21 04:57:39;;;;;;;12.70;4.10;;;;;;;;;;5084593;28;20044;-67
2022/06/21 05:00:10;;;;;;;11.60;4.10;;;;;;;;;;5080165;28;20060;-67
2022/06/21 05:02:40;;;;;;;10.67;3.63;;;;;;;;;;5084409;28;20031;-68
2022/06/21 05:05:09;;;;;;;9.07;3.60;;;;;;;;;;5088383;28;20039;-68
2022/06/21 05:07:39;;;;;;;9.07;3.40;;;;;;;;;;5086423;28;20016;-68
2022/06/21 05:10:04;;;;;;;9.90;4.33;;;;;;;;;;5077875;28;20086;-67
2022/06/21 05:12:31;;;;;;;13.70;4.33;;;;;;;;;;5082827;28;20038;-67
2022/06/21 05:14:58;;;;;;;13.70;4.63;;;;;;;;;;5084208;28;20035;-67
2022/06/21 05:17:23;;;;;;;17.40;5.13;;;;;;;;;;5078903;28;20024;-67
2022/06/21 05:19:51;;;;;;;10.53;4.67;;;;;;;;;;5086854;28;20482;-67
2022/06/21 05:22:29;;;;;;;12.40;4.80;;;;;;;;;;5083085;28;20020;-67
2022/06/21 05:24:56;;;;;;;13.07;4.40;;;;;;;;;;5082298;28;20388;-67
2022/06/21 05:27:31;;;;;;;11.30;4.30;;;;;;;;;;5080252;28;20070;-67
2022/06/21 05:30:29;;;;;;;13.43;4.70;;;;;;;;;;5084503;28;20349;-67
2022/06/21 05:32:56;;;;;;;13.93;4.57;;;;;;;;;;5066951;28;20514;-67
2022/06/21 05:35:24;;;;;;;13.30;3.83;;;;;;;;;;5086054;28;20039;-67
2022/06/21 05:37:51;;;;;;;15.53;4.87;;;;;;;;;;5087793;28;20016;-67
2022/06/21 05:40:22;;;;;;;12.80;4.17;;;;;;;;;;5081098;28;20524;-67
2022/06/21 05:42:47;;;;;;;9.55;4.00;;;;;;;;;;5079072;28;20031;-67
2022/06/21 05:45:14;;;;;;;12.55;4.25;;;;;;;;;;5082064;28;20028;-67
2022/06/21 05:47:41;;;;;;;11.50;4.40;;;;;;;;;;5081553;28;20036;-67
2022/06/21 05:50:08;;;;;;;14.85;4.15;;;;;;;;;;5082739;28;20028;-67
2022/06/21 05:52:35;;;;;;;12.45;4.00;;;;;;;;;;5089982;28;20046;-67
2022/06/21 05:55:04;;;;;;;11.88;3.63;;;;;;;;;;5085339;28;20043;-67
2022/06/21 05:57:36;;;;;;;12.38;4.20;;;;;;;;;;5081782;28;20024;-67
2022/06/21 06:00:04;;;;;;;13.82;4.38;;;;;;;;;;5079878;28;20525;-67
2022/06/21 06:02:35;;;;;;;12.70;4.15;;;;;;;;;;5080859;28;20029;-67
2022/06/21 06:05:01;;;;;;;;;;;;;;;;;;5079856;28;20471;-67
2022/06/21 06:07:28;;;;;;;11.40;3.90;;;;;;;;;;5091348;28;19904;-67
2022/06/21 06:09:56;;;;;;;12.07;3.80;;;;;;;;;;5086684;28;20414;-67
2022/06/21 06:12:41;;;;;;;11.20;4.28;;;;;;;;;;5087992;28;20028;-67
2022/06/21 06:15:10;;;;;;;13.97;4.60;;;;;;;;;;5080798;28;20044;-67
2022/06/21 06:17:47;;;;;;;10.90;4.45;;;;;;;;;;5087141;28;20018;-67
2022/06/21 06:20:29;;;;;;;12.32;4.20;;;;;;;;;;5088237;28;20020;-67
2022/06/21 06:23:13;;;;;;;14.50;4.22;;;;;;;;;;5082186;28;20029;-68
2022/06/21 06:25:42;;;;;;;9.93;4.20;;;;;;;;;;5091052;28;20523;-67
2022/06/21 06:28:11;;;;;;;9.40;4.45;;;;;;;;;;5086614;28;20032;-67
2022/06/21 06:30:41;;;;;;;9.05;3.88;;;;;;;;;;5088008;28;20043;-67
2022/06/21 06:33:07;;;;;;;12.00;4.30;;;;;;;;;;5084061;28;20030;-68
2022/06/21 06:35:32;;;;;;;11.38;3.78;;;;;;;;;;5081771;28;20274;-67
2022/06/21 06:37:57;;;;;;;11.40;3.70;;;;;;;;;;5088745;28;20024;-67
2022/06/21 06:40:29;;;;;;;9.38;3.58;;;;;;;;;;5084573;28;20490;-67
2022/06/21 06:42:58;;;;;;;10.35;4.13;;;;;;;;;;5079285;28;20031;-67
2022/06/21 06:45:25;;;;;;;11.50;4.05;;;;;;;;;;5087019;28;20721;-67
2022/06/21 06:48:03;;;;;;;10.52;3.85;;;;;;;;;;5090744;28;20147;-67
2022/06/21 06:50:39;;;;;;;9.65;3.80;;;;;;;;;;5085924;28;20055;-67
2022/06/21 06:53:23;;;;;;;12.15;3.72;;;;;;;;;;5084320;28;20086;-67
2022/06/21 06:55:53;;;;;;;11.07;3.33;;;;;;;;;;5082930;28;20360;-67
2022/06/21 06:58:21;;;;;;;12.90;4.15;;;;;;;;;;5081035;28;20445;-67
2022/06/21 07:00:54;;;;;;;10.88;3.17;;;;;;;;;;5077606;28;20020;-68
2022/06/21 07:03:21;;;;;;;7.97;2.80;;;;;;;;;;5084451;28;20077;-68
2022/06/21 07:05:51;;;;;;;9.07;2.80;;;;;;;;;;5085866;28;20028;-67
2022/06/21 07:08:35;;;;;;;9.65;2.80;;;;;;;;;;5086003;28;20076;-67
2022/06/21 07:11:02;;;;;;;9.85;3.05;;;;;;;;;;5084485;28;20027;-68
2022/06/21 07:13:28;;;;;;;10.15;3.00;;;;;;;;;;5087132;28;20026;-67
2022/06/21 07:15:55;;;;;;;10.10;2.38;;;;;;;;;;5085453;28;20112;-67
2022/06/21 07:18:28;;;;;;;7.65;1.83;;;;;;;;;;5080531;28;20513;-67
2022/06/21 07:20:54;;;;;;;7.47;1.83;;;;;;;;;;5081797;28;20114;-68
2022/06/21 07:23:20;;;;;;;7.53;1.42;;;;;;;;;;5082698;28;20523;-68
2022/06/21 07:25:52;;;;;;;8.27;1.60;;;;;;;;;;5079310;28;20098;-68
2022/06/21 07:28:24;;;;;;;9.43;1.70;;;;;;;;;;5089470;28;20904;-67
2022/06/21 07:30:51;;;;;;;10.07;1.80;;;;;;;;;;5087472;28;20085;-68
2022/06/21 07:33:19;;;;;;;10.38;1.90;;;;;;;;;;5089775;28;20076;-68
2022/06/21 07:35:47;;;;;;;7.50;2.22;;;;;;;;;;5079484;28;20016;-67
2022/06/21 07:38:25;;;;;;;9.05;2.05;;;;;;;;;;5080827;28;20025;-67
2022/06/21 07:40:53;;;;;;;8.52;2.50;;;;;;;;;;5075503;28;20032;-67
2022/06/21 07:43:25;;;;;;;8.32;1.90;;;;;;;;;;5085772;28;20020;-67
2022/06/21 07:45:53;;;;;;;8.85;2.13;;;;;;;;;;5082372;28;20032;-67
2022/06/21 07:48:37;;;;;;;9.73;1.90;;;;;;;;;;5081937;28;20024;-68
2022/06/21 07:51:12;;;;;;;9.05;1.90;;;;;;;;;;5082795;28;20038;-68
2022/06/21 07:53:51;;;;;;;10.05;2.10;;;;;;;;;;5080118;28;20482;-68
2022/06/21 07:56:16;;;;;;;8.90;2.00;;;;;;;;;;5077386;28;20091;-68
2022/06/21 07:58:57;;;;;;;11.00;2.22;;;;;;;;;;5084702;28;20103;-67
2022/06/21 08:07:04;;;;;;;10.52;1.95;;;;;;;;;;5082105;28;20082;-68
2022/06/21 08:09:50;;;;;;;6.63;2.00;;;;;;;;;;5085759;28;20368;-68
2022/06/21 08:12:16;;;;;;;8.80;2.10;;;;;;;;;;5085640;28;20529;-68
2022/06/21 08:14:41;;;;;;;11.10;2.10;;;;;;;;;;5078445;28;20126;-68
2022/06/21 08:17:16;;;;;;;10.00;2.20;;;;;;;;;;5079460;28;20566;-68
2022/06/21 08:19:54;;;;;;;9.98;1.90;;;;;;;;;;5083769;28;20430;-68
2022/06/21 08:22:23;;;;;;;9.20;2.10;;;;;;;;;;5080471;28;20115;-68
2022/06/21 08:25:01;;;;;;;12.77;2.38;;;;;;;;;;5083932;28;20020;-67
2022/06/21 08:27:59;;;;;;;10.40;2.13;;;;;;;;;;5079702;28;20107;-68
2022/06/21 08:30:24;;;;;;;7.15;2.08;;;;;;;;;;5059722;28;20041;-68
2022/06/21 08:32:49;;;;;;;6.57;2.05;;;;;;;;;;5089081;28;20051;-68
2022/06/21 08:35:24;;;;;;;7.90;1.90;;;;;;;;;;5087027;28;20382;-68
2022/06/21 08:38:10;;;;;;;8.90;2.10;;;;;;;;;;5079652;28;20455;-68
2022/06/21 08:40:54;;;;;;;7.90;2.30;;;;;;;;;;5088283;28;20099;-68
2022/06/21 08:43:35;;;;;;;8.55;2.00;;;;;;;;;;5090031;28;20086;-68
2022/06/21 08:46:10;;;;;;;6.65;1.90;;;;;;;;;;5089818;28;20024;-68
2022/06/21 08:48:43;;;;;;;8.68;1.80;;;;;;;;;;5083551;28;20058;-68
2022/06/21 08:51:30;;;;;;;7.65;1.80;;;;;;;;;;5077806;28;20482;-68
2022/06/21 08:54:01;;;;;;;7.20;1.80;;;;;;;;;;5079963;28;20555;-68
2022/06/21 08:56:46;;;;;;;6.93;1.70;;;;;;;;;;5088009;28;20031;-68
2022/06/21 08:59:11;;;;;;;6.43;1.65;;;;;;;;;;5082531;28;20047;-68
2022/06/21 09:01:39;;;;;;;13.25;2.00;;;;;;;;;;5086914;28;20023;-69
2022/06/21 09:04:23;;;;;;;9.68;2.15;;;;;;;;;;5085571;28;20035;-68
2022/06/21 09:06:51;;;;;;;6.82;1.85;;;;;;;;;;5082444;28;20028;-68
2022/06/21 09:09:27;;;;;;;8.40;1.60;;;;;;;;;;5088086;28;20036;-68
2022/06/21 09:12:07;;;;;;;5.03;1.35;;;;;;;;;;5088394;28;20028;-68
2022/06/21 09:14:46;;;;;;;5.70;1.55;;;;;;;;;;5091964;28;20024;-69
2022/06/21 09:17:17;;;;;;;7.15;1.83;;;;;;;;;;5083417;28;20391;-69
2022/06/21 09:19:58;;;;;;;7.72;1.60;;;;;;;;;;5082396;28;20481;-68
2022/06/21 09:22:29;;;;;;;6.28;1.45;;;;;;;;;;5091936;28;20016;-68
2022/06/21 09:24:54;;;;;;;7.40;1.50;;;;;;;;;;5087920;28;20059;-68
2022/06/21 09:27:25;;;;;;;8.27;1.53;;;;;;;;;;5092429;28;20051;-68
2022/06/21 09:30:08;;;;;;;6.18;1.50;;;;;;;;;;5090241;28;20757;-68
2022/06/21 09:33:03;;;;;;;9.15;1.60;;;;;;;;;;5090424;28;20048;-68
2022/06/21 09:35:41;;;;;;;6.38;1.50;;;;;;;;;;5067463;28;20031;-68
2022/06/21 09:38:09;;;;;;;6.32;1.45;;;;;;;;;;5085836;28;20024;-68
2022/06/21 09:40:42;;;;;;;6.90;1.50;;;;;;;;;;5089975;28;20464;-68
2022/06/21 09:43:11;;;;;;;6.72;1.48;;;;;;;;;;5083987;28;20027;-68
2022/06/21 09:45:43;;;;;;;6.72;1.30;;;;;;;;;;5086275;28;20052;-68
2022/06/21 09:48:21;;;;;;;7.72;1.58;;;;;;;;;;5088888;28;20024;-68
2022/06/21 09:50:49;;;;;;;8.68;1.60;;;;;;;;;;5087093;28;20490;-68
2022/06/21 09:53:37;;;;;;;6.25;1.35;;;;;;;;;;5087790;28;20475;-68
2022/06/21 09:56:20;;;;;;;6.20;1.50;;;;;;;;;;5091410;28;20425;-68
2022/06/21 09:58:50;;;;;;;5.93;1.48;;;;;;;;;;5087505;28;20016;-69
2022/06/21 10:01:22;;;;;;;5.85;1.33;;;;;;;;;;5085736;28;20024;-69
2022/06/21 10:03:56;;;;;;;7.50;1.42;;;;;;;;;;5085925;28;20035;-69
2022/06/21 10:06:44;;;;;;;6.57;1.40;;;;;;;;;;5090286;28;20020;-68
2022/06/21 10:09:16;;;;;;;5.72;1.40;;;;;;;;;;5085579;28;20466;-69
2022/06/21 10:11:44;;;;;;;6.78;1.50;;;;;;;;;;5084679;28;20035;-69
2022/06/21 10:14:17;;;;;;;9.75;1.70;;;;;;;;;;5086260;28;20024;-68
2022/06/21 10:17:01;;;;;;;4.88;1.40;;;;;;;;;;5086315;28;20012;-68
2022/06/21 10:19:36;;;;;;;6.15;1.45;;;;;;;;;;5081786;28;20020;-69
2022/06/21 10:22:20;;;;;;;8.30;1.70;;;;;;;;;;5084966;28;20028;-69
2022/06/21 10:24:46;;;;;;;7.38;1.30;;;;;;;;;;5087972;28;20070;-68
2022/06/21 10:27:30;;;;;;;4.53;1.20;;;;;;;;;;5080247;28;20036;-68
2022/06/21 10:30:06;;;;;;;6.13;1.05;;;;;;;;;;5085901;28;20016;-68
2022/06/21 10:32:37;;;;;;;8.40;1.40;;;;;;;;;;5086798;28;20067;-69
2022/06/21 10:35:21;;;;;;;5.60;1.40;;;;;;;;;;5080157;28;20417;-68
2022/06/21 10:37:58;;;;;;;5.82;1.20;;;;;;;;;;5079093;28;20553;-68
2022/06/21 10:40:41;;;;;;;5.68;1.33;;;;;;;;;;5086574;28;20063;-69
2022/06/21 10:43:18;;;;;;;6.80;1.70;;;;;;;;;;5082661;28;20047;-69
2022/06/21 10:46:00;;;;;;;7.82;1.85;;;;;;;;;;5086331;28;20107;-68
2022/06/21 10:48:44;;;;;;;6.63;1.48;;;;;;;;;;5082939;28;20047;-69
2022/06/21 10:51:27;;;;;;;5.10;1.40;;;;;;;;;;5086304;28;20066;-68
2022/06/21 10:54:11;;;;;;;5.25;1.40;;;;;;;;;;5088574;28;20051;-69
2022/06/21 10:57:09;;;;;;;4.93;1.50;;;;;;;;;;5081157;28;20024;-69
2022/06/21 11:02:41;;;;;;;6.47;1.38;;;;;;;;;;5085770;28;20749;-69
2022/06/21 11:05:12;;;;;;;6.78;1.33;;;;;;;;;;5072330;28;20074;-69
2022/06/21 11:07:38;;;;;;;5.85;1.33;;;;;;;;;;5083555;28;20111;-68
2022/06/21 11:10:12;;;;;;;5.63;1.35;;;;;;;;;;5088345;28;20095;-68
2022/06/21 11:12:56;;;;;;;7.55;1.58;;;;;;;;;;5089365;28;20027;-68
2022/06/21 11:15:37;;;;;;;5.78;1.38;;;;;;;;;;5087270;28;20020;-68
2022/06/21 11:18:02;;;;;;;4.70;1.23;;;;;;;;;;5090488;28;20383;-69
2022/06/21 11:20:33;;;;;;;5.80;1.10;;;;;;;;;;5086183;28;20020;-69
2022/06/21 11:22:59;;;;;;;4.63;1.30;;;;;;;;;;5077952;28;20016;-68
2022/06/21 11:25:44;;;;;;;4.78;1.17;;;;;;;;;;5084806;28;20016;-68
2022/06/21 11:28:16;;;;;;;4.45;1.17;;;;;;;;;;5084410;28;20015;-68
2022/06/21 11:30:47;;;;;;;6.50;1.33;;;;;;;;;;5086150;28;20031;-70
2022/06/21 11:33:15;;;;;;;6.97;1.40;;;;;;;;;;5082398;28;20035;-68
2022/06/21 11:35:52;;;;;;;6.43;1.23;;;;;;;;;;5083331;28;20023;-68
2022/06/21 11:38:32;;;;;;;6.03;1.20;;;;;;;;;;5082380;28;20055;-68
2022/06/21 11:42:04;;;;;;;6.65;1.60;;;;;;;;;;5087568;28;20082;-68
2022/06/21 11:44:12;;;;;;;7.35;1.40;;;;;;;;;;5081499;28;20118;-69
2022/06/21 11:46:44;;;;;;;6.90;1.50;;;;;;;;;;5085641;28;20103;-69
2022/06/21 11:49:28;;;;;;;7.78;1.38;;;;;;;;;;5084150;28;20490;-68
2022/06/21 11:52:05;;;;;;;5.18;1.27;;;;;;;;;;5080840;28;20111;-68
2022/06/21 11:54:51;;;;;;;5.70;1.20;;;;;;;;;;5081960;28;20028;-67
2022/06/21 11:57:16;;;;;;;3.92;1.10;;;;;;;;;;5057316;28;20251;-69
2022/06/21 11:59:47;;;;;;;5.63;1.30;;;;;;;;;;5079823;28;20020;-68
2022/06/21 12:02:12;;;;;;;;;;;;;;;;;;5083541;28;20611;-68
2022/06/21 12:04:37;;;;;;;5.57;1.30;;;;;;;;;;5092649;28;20771;-68
2022/06/21 12:07:18;;;;;;;3.63;1.10;;;;;;;;;;5090263;28;20054;-68
2022/06/21 12:09:46;;;;;;;5.97;1.40;;;;;;;;;;5092307;28;20254;-68
2022/06/21 12:12:19;;;;;;;6.13;1.25;;;;;;;;;;5085822;28;20020;-68
2022/06/21 12:14:48;;;;;;;5.32;1.30;;;;;;;;;;5083415;28;20200;-68
2022/06/21 12:17:21;;;;;;;5.63;1.40;;;;;;;;;;5083827;28;20020;-67
2022/06/21 12:19:49;;;;;;;5.40;1.30;;;;;;;;;;5088325;28;20048;-68
2022/06/21 12:22:28;;;;;;;5.53;1.23;;;;;;;;;;5081671;28;20025;-68
2022/06/21 12:24:54;;;;;;;8.23;1.40;;;;;;;;;;5079057;28;20024;-68
2022/06/21 12:27:20;;;;;;;4.38;1.23;;;;;;;;;;5081667;28;20028;-67
2022/06/21 12:29:45;;;;;;;4.43;1.20;;;;;;;;;;5082961;28;20031;-68
2022/06/21 12:32:17;;;;;;;4.55;1.00;;;;;;;;;;5086668;28;20020;-68
2022/06/21 12:34:47;;;;;;;4.75;1.42;;;;;;;;;;5084682;28;20364;-68
2022/06/21 12:37:13;;;;;;;;;;;;;;;;;;5081666;28;20032;-68
2022/06/21 12:39:44;;;;;;;4.33;1.10;;;;;;;;;;5081775;28;20394;-68
2022/06/21 12:42:12;;;;;;;5.38;1.20;;;;;;;;;;5079931;28;20281;-68
2022/06/21 12:44:43;;;;;;;6.75;1.30;;;;;;;;;;5082801;28;20035;-68
2022/06/21 12:47:11;;;;;;;6.93;1.30;;;;;;;;;;5078348;28;20117;-68
2022/06/21 12:50:06;;;;;;;5.25;1.35;;;;;;;;;;5080398;28;20490;-68
2022/06/21 12:52:54;;;;;;;4.68;1.08;;;;;;;;;;5084156;28;20032;-68
2022/06/21 12:55:38;;;;;;;5.00;1.27;;;;;;;;;;5081059;28;20038;-67
2022/06/21 12:58:04;;;;;;;5.20;1.10;;;;;;;;;;5083269;28;20070;-67
2022/06/21 13:00:29;;;;;;;7.13;1.42;;;;;;;;;;5088666;28;20019;-67
2022/06/21 13:03:13;;;;;;;5.40;1.23;;;;;;;;;;5089388;28;20028;-67
2022/06/21 13:05:38;;;;;;;7.47;1.58;;;;;;;;;;5081713;28;20349;-67
2022/06/21 13:08:11;;;;;;;5.60;1.60;;;;;;;;;;5082598;28;20035;-68
2022/06/21 13:10:53;;;;;;;6.82;1.40;;;;;;;;;;5085133;28;20059;-68
2022/06/21 13:13:30;;;;;;;6.32;1.30;;;;;;;;;;5088679;28;20040;-67
2022/06/21 13:16:08;;;;;;;6.90;1.40;;;;;;;;;;5087736;28;20062;-67
2022/06/21 13:18:42;;;;;;;6.22;1.27;;;;;;;;;;5083221;28;20020;-67
2022/06/21 13:21:22;;;;;;;6.72;1.27;;;;;;;;;;5089094;28;20035;-67
2022/06/21 13:23:48;;;;;;;8.18;1.17;;;;;;;;;;5089412;28;20077;-67
2022/06/21 13:26:19;;;;;;;5.57;1.15;;;;;;;;;;5088628;28;20031;-67
2022/06/21 13:28:47;;;;;;;7.30;1.23;;;;;;;;;;5087386;28;20023;-68
2022/06/21 13:31:16;;;;;;;5.45;1.10;;;;;;;;;;5088826;28;20425;-67
2022/06/21 13:33:51;;;;;;;5.30;1.38;;;;;;;;;;5089069;28;20395;-67
2022/06/21 13:36:34;;;;;;;3.83;1.10;;;;;;;;;;5088717;28;20399;-68
2022/06/21 13:39:20;;;;;;;5.68;1.00;;;;;;;;;;5088911;28;20020;-67
2022/06/21 13:44:47;;;;;;;3.60;1.17;;;;;;;;;;5085249;28;20105;-67
2022/06/21 13:47:21;;;;;;;4.50;1.10;;;;;;;;;;5088932;28;20043;-68
2022/06/21 13:49:50;;;;;;;5.70;1.20;;;;;;;;;;5088107;28;20103;-68
2022/06/21 13:52:23;;;;;;;8.48;1.20;;;;;;;;;;5079942;28;20040;-66
2022/06/21 13:54:52;;;;;;;4.32;1.42;;;;;;;;;;5081350;28;20915;-66
2022/06/21 13:57:36;;;;;;;5.13;1.30;;;;;;;;;;5080108;28;20028;-66
2022/06/21 14:00:04;;;;;;;3.28;1.13;;;;;;;;;;5075757;28;20031;-66
2022/06/21 14:02:39;;;;;;;7.63;1.10;;;;;;;;;;5079079;28;20593;-67
2022/06/21 14:05:08;;;;;;;5.95;1.33;;;;;;;;;;5085186;28;20019;-66
2022/06/21 14:07:39;;;;;;;6.72;1.40;;;;;;;;;;5081972;28;20024;-66
2022/06/21 14:10:10;;;;;;;3.83;1.10;;;;;;;;;;5082438;28;20032;-66
2022/06/21 14:12:35;;;;;;;5.07;1.15;;;;;;;;;;5077029;28;20046;-67
2022/06/21 14:15:01;;;;;;;3.47;1.00;;;;;;;;;;5080737;28;20552;-66
2022/06/21 14:17:32;;;;;;;9.00;1.58;;;;;;;;;;5079526;28;20103;-67
2022/06/21 14:19:58;;;;;;;4.65;1.20;;;;;;;;;;5084730;28;20038;-67
2022/06/21 14:22:28;;;;;;;5.20;1.38;;;;;;;;;;5084280;28;20024;-67
2022/06/21 14:24:55;;;;;;;4.68;1.25;;;;;;;;;;5075432;28;20057;-67
2022/06/21 14:27:24;;;;;;;7.13;1.40;;;;;;;;;;5080354;28;20032;-66
2022/06/21 14:30:03;;;;;;;5.70;1.20;;;;;;;;;;5079539;28;20085;-67
2022/06/21 14:32:35;;;;;;;10.43;1.98;;;;;;;;;;5087379;28;20032;-66
2022/06/21 14:35:04;;;;;;;3.75;1.00;;;;;;;;;;5081798;28;20392;-66
2022/06/21 14:37:37;;;;;;;7.57;1.20;;;;;;;;;;5087700;28;20045;-67
2022/06/21 14:40:05;;;;;;;5.03;1.23;;;;;;;;;;5087256;28;20773;-66
2022/06/21 14:42:35;;;;;;;3.53;0.98;;;;;;;;;;5087016;28;20074;-67
2022/06/21 14:45:12;;;;;;;6.53;1.30;;;;;;;;;;5083012;28;20020;-66
2022/06/21 14:47:40;;;;;;;9.63;1.40;;;;;;;;;;5084524;28;20478;-66
2022/06/21 14:50:19;;;;;;;5.43;1.10;;;;;;;;;;5078126;28;20059;-66
2022/06/21 14:52:48;;;;;;;6.85;1.20;;;;;;;;;;5081580;28;20027;-66
2022/06/21 14:55:15;;;;;;;8.10;1.20;;;;;;;;;;5087205;28;20073;-67
2022/06/21 14:57:56;;;;;;;6.85;1.15;;;;;;;;;;5086486;28;20112;-66
2022/06/21 15:00:35;;;;;;;4.50;1.10;;;;;;;;;;5086204;28;20050;-66
2022/06/21 15:03:06;;;;;;;6.90;1.27;;;;;;;;;;5073849;28;20438;-67
2022/06/21 15:05:51;;;;;;;6.43;1.13;;;;;;;;;;5074822;28;20034;-67
2022/06/21 15:08:18;;;;;;;3.70;1.20;;;;;;;;;;5071441;28;20047;-67
2022/06/21 15:10:47;;;;;;;5.68;1.17;;;;;;;;;;5078221;28;20028;-67
2022/06/21 15:13:15;;;;;;;3.47;0.90;;;;;;;;;;5071815;28;20420;-66
2022/06/21 15:15:41;;;;;;;3.85;0.80;;;;;;;;;;5083955;28;20479;-66
2022/06/21 15:18:15;;;;;;;7.90;1.10;;;;;;;;;;5082264;28;20035;-66